Time;durP1;ratioP1;P1;durP2;ratioP2;P2;SDS_P1;SDS_P2;PMS_P1;PMS_P2;Temp;Humidity;BMP_temperature;BMP_pressure;BME280_temperature;BME280_humidity;BME280_pressure;Samples;Min_cycle;Max_cycle;Signal;HPM_P1;HPM_P2
2021/06/30 00:01:00;;;;;;;;;;;;;;;21.59;57.87;101459.50;2193477;39;115859;-56
2021/06/30 00:02:32;;;;;;;;;;;;;;;21.61;57.97;101462.84;2195557;39;115486;-55
2021/06/30 00:04:04;;;;;;;;;;;;;;;21.58;58.10;101457.81;2198351;39;115395;-55
2021/06/30 00:05:37;;;;;;;;;;;;;;;21.61;58.16;101459.19;2201661;39;115506;-55
2021/06/30 00:07:09;;;;;;;;;;;;;;;21.60;58.01;101460.34;2196923;39;114007;-55
2021/06/30 00:08:41;;;;;;;;;;;;;;;21.59;58.06;101459.50;2190452;39;113839;-55
2021/06/30 00:10:13;;;;;;;;;;;;;;;21.59;58.08;101453.03;2194169;39;113719;-55
2021/06/30 00:11:45;;;;;;;;;;;;;;;21.59;57.98;101453.88;2186883;39;114042;-55
2021/06/30 00:13:17;;;;;;;;;;;;;;;21.59;58.08;101451.06;2192056;39;113744;-55
2021/06/30 00:14:51;;;;;;;;;;;;;;;21.60;58.13;101451.91;2194769;39;114153;-55
2021/06/30 00:16:23;;;;;;;;;;;;;;;21.61;58.24;101445.16;2190098;39;113750;-55
2021/06/30 00:17:55;;;;;;;;;;;;;;;21.58;58.10;101449.38;2188567;39;113782;-55
2021/06/30 00:19:28;;;;;;;;;;;;;;;21.58;57.77;101446.56;2186421;39;113978;-55
2021/06/30 00:21:01;;;;;;;;;;;;;;;21.57;57.85;101446.91;2190752;39;113600;-55
2021/06/30 00:22:33;;;;;;;;;;;;;;;21.59;58.11;101444.59;2198179;39;113829;-55
2021/06/30 00:24:05;;;;;;;;;;;;;;;21.59;57.90;101438.97;2193736;39;113945;-55
2021/06/30 00:25:37;;;;;;;;;;;;;;;21.60;58.23;101435.03;2193813;39;114189;-56
2021/06/30 00:27:09;;;;;;;;;;;;;;;21.58;58.25;101437.28;2199443;39;113859;-55
2021/06/30 00:28:41;;;;;;;;;;;;;;;21.59;58.37;101434.19;2188993;39;114570;-55
2021/06/30 00:30:14;;;;;;;;;;;;;;;21.60;58.13;101429.41;2193635;39;115581;-55
2021/06/30 00:31:45;;;;;;;;;;;;;;;21.60;57.85;101433.06;2187899;39;115829;-55
2021/06/30 00:33:18;;;;;;;;;;;;;;;21.61;58.39;101434.75;2194230;39;115329;-55
2021/06/30 00:34:50;;;;;;;;;;;;;;;21.60;57.97;101430.25;2198517;39;115260;-55
2021/06/30 00:36:22;;;;;;;;;;;;;;;21.60;57.92;101435.88;2195854;39;115140;-55
2021/06/30 00:37:54;;;;;;;;;;;;;;;21.62;58.12;101435.56;2188358;39;115381;-55
2021/06/30 00:39:25;;;;;;;;;;;;;;;21.59;58.46;101427.72;2189333;39;115329;-55
2021/06/30 00:40:57;;;;;;;;;;;;;;;21.60;58.35;101424.63;2195712;39;114260;-55
2021/06/30 00:42:29;;;;;;;;;;;;;;;21.61;58.52;101431.91;2198104;39;115434;-55
2021/06/30 00:44:01;;;;;;;;;;;;;;;21.61;58.45;101434.75;2192514;39;115467;-55
2021/06/30 00:45:33;;;;;;;;;;;;;;;21.58;58.47;101435.31;2193369;39;114927;-55
2021/06/30 00:47:05;;;;;;;;;;;;;;;21.61;58.76;101436.72;2192511;39;115403;-55
2021/06/30 00:48:39;;;;;;;;;;;;;;;21.58;58.75;101440.94;2194914;39;115201;-55
2021/06/30 00:50:13;;;;;;;;;;;;;;;21.59;58.53;101439.81;2198626;39;116086;-55
2021/06/30 00:51:45;;;;;;;;;;;;;;;21.58;58.33;101435.31;2198763;39;115549;-55
2021/06/30 00:53:17;;;;;;;;;;;;;;;21.59;58.52;101438.97;2198357;39;115821;-55
2021/06/30 00:54:49;;;;;;;;;;;;;;;21.60;58.60;101440.66;2195650;39;115791;-55
2021/06/30 00:56:23;;;;;;;;;;;;;;;21.61;58.55;101439.53;2191081;39;115928;-55
2021/06/30 00:57:55;;;;;;;;;;;;;;;21.61;58.49;101445.16;2191310;39;116272;-55
2021/06/30 00:59:26;;;;;;;;;;;;;;;21.61;58.47;101445.16;2192422;39;115563;-55
2021/06/30 01:00:58;;;;;;;;;;;;;;;21.60;58.61;101444.31;2195743;39;115522;-55
2021/06/30 01:02:30;;;;;;;;;;;;;;;21.61;58.75;101437.53;2197925;39;115865;-55
2021/06/30 01:04:02;;;;;;;;;;;;;;;21.61;58.77;101439.53;2199235;39;115643;-55
2021/06/30 01:05:34;;;;;;;;;;;;;;;21.62;58.75;101436.38;2193790;39;115925;-55
2021/06/30 01:07:06;;;;;;;;;;;;;;;21.61;58.50;101442.34;2195826;39;115997;-55
2021/06/30 01:08:38;;;;;;;;;;;;;;;21.61;58.85;101445.97;2202060;39;115688;-55
2021/06/30 01:10:10;;;;;;;;;;;;;;;21.62;58.72;101444.00;2192624;39;115680;-55
2021/06/30 01:11:42;;;;;;;;;;;;;;;21.62;58.75;101441.19;2193687;39;113743;-55
2021/06/30 01:13:14;;;;;;;;;;;;;;;21.61;58.93;101440.34;2190639;39;113961;-55
2021/06/30 01:14:47;;;;;;;;;;;;;;;21.61;58.91;101431.91;2196630;39;113849;-55
2021/06/30 01:16:19;;;;;;;;;;;;;;;21.58;59.27;101432.50;2196491;39;114072;-56
2021/06/30 01:17:53;;;;;;;;;;;;;;;21.57;59.06;101433.69;2198236;39;113996;-55
2021/06/30 01:19:26;;;;;;;;;;;;;;;21.57;59.10;101428.06;2201996;39;114024;-55
2021/06/30 01:20:59;;;;;;;;;;;;;;;21.58;59.16;101429.69;2197843;39;113880;-55
2021/06/30 01:22:31;;;;;;;;;;;;;;;21.59;58.98;101433.34;2191711;39;113823;-55
2021/06/30 01:24:03;;;;;;;;;;;;;;;21.57;59.07;101433.69;2189533;39;113981;-55
2021/06/30 01:25:35;;;;;;;;;;;;;;;21.59;58.80;101431.38;2194561;39;114570;-55
2021/06/30 01:27:07;;;;;;;;;;;;;;;21.59;58.60;101437.00;2196338;39;113986;-56
2021/06/30 01:28:39;;;;;;;;;;;;;;;21.59;58.78;101431.38;2196572;39;113905;-55
2021/06/30 01:30:11;;;;;;;;;;;;;;;21.60;58.88;101435.88;2190672;39;113897;-55
2021/06/30 01:31:43;;;;;;;;;;;;;;;21.59;58.98;101431.38;2188823;39;113866;-56
2021/06/30 01:33:15;;;;;;;;;;;;;;;21.58;58.97;101438.13;2194104;39;114415;-55
2021/06/30 01:34:47;;;;;;;;;;;;;;;21.60;58.78;101435.88;2190001;39;114847;-56
2021/06/30 01:36:19;;;;;;;;;;;;;;;21.59;58.91;101431.38;2189706;39;114232;-56
2021/06/30 01:37:51;;;;;;;;;;;;;;;21.60;58.65;101433.06;2192552;39;115079;-56
2021/06/30 01:39:24;;;;;;;;;;;;;;;21.59;58.83;101445.44;2191672;39;115050;-55
2021/06/30 01:40:56;;;;;;;;;;;;;;;21.58;58.98;101428.84;2192420;39;114070;-55
2021/06/30 01:42:28;;;;;;;;;;;;;;;21.56;58.99;101429.19;2185784;39;114850;-55
2021/06/30 01:44:00;;;;;;;;;;;;;;;21.59;58.83;101431.38;2189166;39;115974;-55
2021/06/30 01:45:32;;;;;;;;;;;;;;;21.61;58.88;101431.09;2198252;39;115506;-55
2021/06/30 01:47:04;;;;;;;;;;;;;;;21.61;58.61;101433.91;2191449;39;114978;-55
2021/06/30 01:48:36;;;;;;;;;;;;;;;21.60;58.73;101429.41;2196174;39;114040;-56
2021/06/30 01:50:12;;;;;;;;;;;;;;;21.61;58.88;101439.53;2198362;39;115153;-55
2021/06/30 01:51:44;;;;;;;;;;;;;;;21.60;58.84;101433.06;2194423;39;114894;-56
2021/06/30 01:53:16;;;;;;;;;;;;;;;21.62;58.59;101438.38;2193792;39;115224;-55
2021/06/30 01:54:48;;;;;;;;;;;;;;;21.60;58.63;101435.03;2200173;39;114815;-55
2021/06/30 01:56:23;;;;;;;;;;;;;;;21.58;58.69;101435.31;2195128;39;115702;-56
2021/06/30 01:57:55;;;;;;;;;;;;;;;21.60;58.42;101433.06;2195026;39;115967;-55
2021/06/30 01:59:27;;;;;;;;;;;;;;;21.61;58.33;101434.75;2195116;39;115174;-56
2021/06/30 02:00:59;;;;;;;;;;;;;;;21.61;58.72;101436.72;2196407;39;115625;-55
2021/06/30 02:02:31;;;;;;;;;;;;;;;21.60;58.39;101433.06;2192525;39;115480;-56
2021/06/30 02:04:03;;;;;;;;;;;;;;;21.60;58.27;101430.25;2198715;39;115789;-55
2021/06/30 02:05:35;;;;;;;;;;;;;;;21.59;58.66;101431.38;2192066;39;115283;-55
2021/06/30 02:07:07;;;;;;;;;;;;;;;21.62;58.39;101432.75;2191058;39;115688;-55
2021/06/30 02:08:39;;;;;;;;;;;;;;;21.60;58.36;101432.22;2192905;39;115182;-55
2021/06/30 02:10:12;;;;;;;;;;;;;;;21.59;58.49;101428.56;2195184;39;114818;-55
2021/06/30 02:11:44;;;;;;;;;;;;;;;21.60;58.29;101433.06;2195001;39;115323;-55
2021/06/30 02:13:16;;;;;;;;;;;;;;;21.57;58.50;101428.06;2192978;39;115870;-55
2021/06/30 02:14:47;;;;;;;;;;;;;;;21.58;58.34;101428.84;2192574;39;115432;-56
2021/06/30 02:16:20;;;;;;;;;;;;;;;21.58;58.67;101435.31;2199212;39;114929;-55
2021/06/30 02:17:53;;;;;;;;;;;;;;;21.60;58.46;101435.88;2196216;39;113833;-55
2021/06/30 02:19:24;;;;;;;;;;;;;;;21.58;58.42;101431.66;2199223;39;113835;-56
2021/06/30 02:20:56;;;;;;;;;;;;;;;21.58;58.48;101428.84;2199471;39;113807;-56
2021/06/30 02:22:28;;;;;;;;;;;;;;;21.56;58.47;101432.00;2198640;39;113881;-55
2021/06/30 02:24:01;;;;;;;;;;;;;;;21.58;58.09;101429.69;2192879;39;113806;-55
2021/06/30 02:25:33;;;;;;;;;;;;;;;21.59;58.07;101428.56;2197565;39;113882;-55
2021/06/30 02:27:05;;;;;;;;;;;;;;;21.60;58.19;101433.06;2199273;39;113599;-55
2021/06/30 02:28:37;;;;;;;;;;;;;;;21.56;58.27;101429.19;2191610;39;113727;-55
2021/06/30 02:30:10;;;;;;;;;;;;;;;21.58;58.33;101429.69;2197132;39;113830;-55
2021/06/30 02:31:42;;;;;;;;;;;;;;;21.58;58.44;101431.66;2199966;39;114040;-55
2021/06/30 02:33:14;;;;;;;;;;;;;;;21.56;58.32;101426.38;2199134;39;113740;-55
2021/06/30 02:34:45;;;;;;;;;;;;;;;21.56;58.29;101428.34;2199571;39;113663;-55
2021/06/30 02:36:18;;;;;;;;;;;;;;;21.56;58.09;101420.75;2199105;39;113698;-55
2021/06/30 02:37:51;;;;;;;;;;;;;;;21.55;58.18;101426.66;2201767;39;113726;-55
2021/06/30 02:39:23;;;;;;;;;;;;;;;21.56;58.29;101428.34;2192726;39;114960;-55
2021/06/30 02:40:55;;;;;;;;;;;;;;;21.57;58.28;101427.22;2196493;39;115615;-55
2021/06/30 02:42:27;;;;;;;;;;;;;;;21.53;58.00;101432.56;2199205;39;114924;-55
2021/06/30 02:43:59;;;;;;;;;;;;;;;21.54;58.27;101431.44;2198921;39;115020;-55
2021/06/30 02:45:31;;;;;;;;;;;;;;;21.53;58.20;101432.56;2192108;39;115445;-55
2021/06/30 02:47:04;;;;;;;;;;;;;;;21.52;58.16;101428.13;2189681;39;114934;-55
2021/06/30 02:48:36;;;;;;;;;;;;;;;21.55;57.91;101423.84;2196758;39;115076;-55
2021/06/30 02:50:08;;;;;;;;;;;;;;;21.53;58.04;101424.16;2198761;39;114606;-55
2021/06/30 02:51:40;;;;;;;;;;;;;;;21.55;58.16;101424.69;2188341;39;115220;-55
2021/06/30 02:53:12;;;;;;;;;;;;;;;21.53;58.21;101424.16;2194512;39;115363;-55
2021/06/30 02:54:44;;;;;;;;;;;;;;;21.55;58.18;101430.31;2198557;39;114145;-55
2021/06/30 02:56:16;;;;;;;;;;;;;;;21.56;58.25;101432.00;2197462;39;114579;-55
2021/06/30 02:57:49;;;;;;;;;;;;;;;21.54;58.26;101434.25;2196281;39;114997;-55
2021/06/30 02:59:21;;;;;;;;;;;;;;;21.54;58.18;101437.06;2193724;39;115315;-55
2021/06/30 03:00:53;;;;;;;;;;;;;;;21.53;58.31;101431.78;2193661;39;115661;-55
2021/06/30 03:02:25;;;;;;;;;;;;;;;21.54;58.51;101437.06;2199688;39;115481;-55
2021/06/30 03:03:57;;;;;;;;;;;;;;;21.55;58.21;101435.09;2190097;39;116418;-55
2021/06/30 03:05:29;;;;;;;;;;;;;;;21.54;58.18;101422.19;2187961;39;115566;-55
2021/06/30 03:07:01;;;;;;;;;;;;;;;21.54;58.63;101428.63;2190894;39;115858;-55
2021/06/30 03:08:33;;;;;;;;;;;;;;;21.54;58.13;101427.78;2198537;39;115705;-55
2021/06/30 03:10:07;;;;;;;;;;;;;;;21.53;58.36;101420.53;2193833;39;116173;-55
2021/06/30 03:11:39;;;;;;;;;;;;;;;21.56;58.39;101420.75;2193678;39;114729;-55
2021/06/30 03:13:11;;;;;;;;;;;;;;;21.57;58.58;101424.41;2193892;39;115967;-55
2021/06/30 03:14:43;;;;;;;;;;;;;;;21.57;58.49;101425.25;2197696;39;116560;-55
2021/06/30 03:16:16;;;;;;;;;;;;;;;21.57;58.45;101422.44;2198067;39;116098;-55
2021/06/30 03:17:47;;;;;;;;;;;;;;;21.58;58.34;101429.69;2197792;39;116458;-55
2021/06/30 03:19:20;;;;;;;;;;;;;;;21.56;58.31;101419.91;2198946;39;115409;-55
2021/06/30 03:20:51;;;;;;;;;;;;;;;21.55;58.62;101427.50;2198981;39;114548;-55
2021/06/30 03:22:23;;;;;;;;;;;;;;;21.55;58.30;101418.22;2201800;39;115451;-55
2021/06/30 03:23:55;;;;;;;;;;;;;;;21.54;58.11;101425.81;2198460;39;113863;-56
2021/06/30 03:25:27;;;;;;;;;;;;;;;21.55;58.24;101424.69;2193442;39;114129;-55
2021/06/30 03:27:00;;;;;;;;;;;;;;;21.55;58.51;101426.66;2196926;39;113957;-55
2021/06/30 03:28:32;;;;;;;;;;;;;;;21.55;58.58;101424.69;2190731;39;113898;-55
2021/06/30 03:30:05;;;;;;;;;;;;;;;21.55;58.26;101432.28;2197176;39;113779;-55
2021/06/30 03:31:36;;;;;;;;;;;;;;;21.58;58.48;101431.66;2192308;39;113879;-55
2021/06/30 03:33:11;;;;;;;;;;;;;;;21.58;58.31;101440.09;2188897;39;113867;-55
2021/06/30 03:34:43;;;;;;;;;;;;;;;21.54;58.55;101428.63;2190862;39;113929;-55
2021/06/30 03:36:15;;;;;;;;;;;;;;;21.56;58.78;101428.34;2199408;39;113688;-56
2021/06/30 03:37:47;;;;;;;;;;;;;;;21.55;58.55;101427.50;2186391;39;113784;-55
2021/06/30 03:39:19;;;;;;;;;;;;;;;21.57;58.58;101427.22;2195880;39;113665;-56
2021/06/30 03:40:51;;;;;;;;;;;;;;;21.58;58.52;101426.03;2194719;39;113840;-55
2021/06/30 03:42:23;;;;;;;;;;;;;;;21.54;58.59;101428.63;2193023;39;113638;-55
2021/06/30 03:43:55;;;;;;;;;;;;;;;21.54;58.56;101428.63;2197527;39;113633;-56
2021/06/30 03:45:26;;;;;;;;;;;;;;;21.56;58.74;101426.38;2189969;39;114935;-55
2021/06/30 03:46:58;;;;;;;;;;;;;;;21.56;58.63;101432.00;2190928;39;115207;-56
2021/06/30 03:48:30;;;;;;;;;;;;;;;21.58;58.85;101437.28;2192887;39;115614;-55
2021/06/30 03:50:03;;;;;;;;;;;;;;;21.54;58.50;101428.63;2189846;39;115308;-55
2021/06/30 03:51:35;;;;;;;;;;;;;;;21.55;58.72;101429.47;2190560;39;114696;-55
2021/06/30 03:53:07;;;;;;;;;;;;;;;21.53;58.30;101434.59;2194993;39;114972;-55
2021/06/30 03:54:39;;;;;;;;;;;;;;;21.54;58.74;101428.63;2194413;39;115371;-55
2021/06/30 03:56:11;;;;;;;;;;;;;;;21.56;58.67;101429.19;2197251;39;114808;-55
2021/06/30 03:57:42;;;;;;;;;;;;;;;21.54;58.59;101434.25;2198061;39;114573;-55
2021/06/30 03:59:15;;;;;;;;;;;;;;;21.54;58.70;101434.25;2195571;39;114820;-55
2021/06/30 04:00:47;;;;;;;;;;;;;;;21.54;58.60;101422.19;2182520;39;114819;-55
2021/06/30 04:02:19;;;;;;;;;;;;;;;21.53;58.22;101429.78;2191695;39;114833;-55
2021/06/30 04:03:54;;;;;;;;;;;;;;;21.54;58.56;101424.97;2197793;39;114854;-55
2021/06/30 04:05:26;;;;;;;;;;;;;;;21.54;58.59;101428.63;2189264;39;114945;-55
2021/06/30 04:06:58;;;;;;;;;;;;;;;21.54;58.40;101428.63;2190810;39;116883;-55
2021/06/30 04:08:30;;;;;;;;;;;;;;;21.54;58.36;101428.63;2198807;39;115660;-55
2021/06/30 04:10:03;;;;;;;;;;;;;;;21.55;58.17;101423.84;2198295;39;115556;-56
2021/06/30 04:11:35;;;;;;;;;;;;;;;21.55;58.25;101424.69;2202522;39;116139;-55
2021/06/30 04:13:09;;;;;;;;;;;;;;;21.53;58.26;101426.97;2196068;39;116802;-55
2021/06/30 04:14:40;;;;;;;;;;;;;;;21.55;58.42;101435.09;2189410;39;116128;-55
2021/06/30 04:16:12;;;;;;;;;;;;;;;21.54;58.43;101439.03;2189463;39;115526;-55
2021/06/30 04:17:44;;;;;;;;;;;;;;;21.51;58.16;101436.84;2196009;39;115585;-55
2021/06/30 04:19:16;;;;;;;;;;;;;;;21.53;58.34;101429.78;2199431;39;115597;-55
2021/06/30 04:20:48;;;;;;;;;;;;;;;21.53;58.05;101432.56;2191516;39;115854;-55
2021/06/30 04:22:20;;;;;;;;;;;;;;;21.53;58.33;101441.00;2194288;39;114662;-55
2021/06/30 04:23:53;;;;;;;;;;;;;;;21.54;57.94;101431.44;2196435;39;114561;-55
2021/06/30 04:25:25;;;;;;;;;;;;;;;21.52;58.00;101436.56;2198702;39;116069;-55
2021/06/30 04:26:57;;;;;;;;;;;;;;;21.53;58.29;101437.41;2193646;39;115481;-55
2021/06/30 04:28:29;;;;;;;;;;;;;;;21.49;58.03;101442.75;2196414;39;114026;-55
2021/06/30 04:30:01;;;;;;;;;;;;;;;21.50;58.32;101432.34;2196859;39;114114;-55
2021/06/30 04:31:33;;;;;;;;;;;;;;;21.52;58.16;101436.56;2187026;39;113996;-55
2021/06/30 04:33:05;;;;;;;;;;;;;;;21.50;58.31;101447.25;2192930;39;114089;-55
2021/06/30 04:34:37;;;;;;;;;;;;;;;21.52;58.43;101432.91;2199119;39;113645;-56
2021/06/30 04:36:08;;;;;;;;;;;;;;;21.52;57.97;101444.16;2192931;39;113908;-55
2021/06/30 04:37:40;;;;;;;;;;;;;;;21.50;57.78;101440.78;2186697;39;114232;-55
2021/06/30 04:39:15;;;;;;;;;;;;;;;21.50;58.35;101441.63;2189547;39;114316;-55
2021/06/30 04:40:46;;;;;;;;;;;;;;;21.51;57.82;101436.84;2195655;39;113734;-55
2021/06/30 04:42:18;;;;;;;;;;;;;;;21.52;57.97;101445.00;2194830;39;114015;-55
2021/06/30 04:43:50;;;;;;;;;;;;;;;21.49;57.95;101439.94;2186925;39;113839;-55
2021/06/30 04:45:22;;;;;;;;;;;;;;;21.50;58.03;101438.81;2193480;39;114030;-55
2021/06/30 04:46:54;;;;;;;;;;;;;;;21.48;57.89;101446.75;2189691;39;113904;-55
2021/06/30 04:48:26;;;;;;;;;;;;;;;21.48;57.99;101449.56;2191442;39;113996;-55
2021/06/30 04:49:58;;;;;;;;;;;;;;;21.48;57.73;101446.75;2196686;39;113486;-55
2021/06/30 04:51:30;;;;;;;;;;;;;;;21.50;57.93;101438.81;2193128;39;115298;-55
2021/06/30 04:53:02;;;;;;;;;;;;;;;21.47;57.88;101436.63;2192897;39;114725;-55
2021/06/30 04:54:34;;;;;;;;;;;;;;;21.48;57.76;101432.69;2190851;39;115202;-55
2021/06/30 04:56:06;;;;;;;;;;;;;;;21.49;58.11;101439.13;2189730;39;115407;-58
2021/06/30 04:57:38;;;;;;;;;;;;;;;21.48;58.02;101438.31;2193116;39;115728;-55
2021/06/30 04:59:10;;;;;;;;;;;;;;;21.48;57.93;101437.47;2193594;39;115182;-55
2021/06/30 05:00:41;;;;;;;;;;;;;;;21.48;57.92;101437.47;2191357;39;114871;-55
2021/06/30 05:02:15;;;;;;;;;;;;;;;21.48;57.95;101435.50;2186399;39;115609;-56
2021/06/30 05:03:47;;;;;;;;;;;;;;;21.50;58.13;101441.63;2194464;39;115444;-55
2021/06/30 05:05:19;;;;;;;;;;;;;;;21.46;57.98;101434.94;2198335;39;114749;-55
2021/06/30 05:06:51;;;;;;;;;;;;;;;21.47;57.95;101436.63;2198264;39;115404;-55
2021/06/30 05:08:23;;;;;;;;;;;;;;;21.46;58.14;101436.91;2198664;39;113894;-55
2021/06/30 05:09:55;;;;;;;;;;;;;;;21.44;57.89;101442.03;2194671;39;114030;-55
2021/06/30 05:11:29;;;;;;;;;;;;;;;21.47;58.19;101438.59;2202764;39;114626;-55
2021/06/30 05:13:01;;;;;;;;;;;;;;;21.49;58.09;101437.16;2203271;39;115415;-56
2021/06/30 05:14:33;;;;;;;;;;;;;;;21.50;58.02;101432.34;2200738;39;116032;-55
2021/06/30 05:16:05;;;;;;;;;;;;;;;21.50;58.11;101432.34;2199792;39;115469;-55
2021/06/30 05:17:37;;;;;;;;;;;;;;;21.51;58.24;101432.06;2198019;39;115830;-55
2021/06/30 05:19:09;;;;;;;;;;;;;;;21.50;57.96;101430.38;2198494;39;115466;-55
2021/06/30 05:20:41;;;;;;;;;;;;;;;21.51;58.43;101426.44;2197545;39;115529;-55
2021/06/30 05:22:12;;;;;;;;;;;;;;;21.50;58.45;101430.38;2194401;39;115974;-55
2021/06/30 05:23:44;;;;;;;;;;;;;;;21.51;58.62;101434.88;2189915;39;115681;-57
2021/06/30 05:25:16;;;;;;;;;;;;;;;21.54;58.82;101430.59;2196268;39;115511;-55
2021/06/30 05:26:48;;;;;;;;;;;;;;;21.55;58.97;101432.28;2198654;39;115582;-55
2021/06/30 05:28:20;;;;;;;;;;;;;;;21.57;59.60;101432.84;2194106;39;115725;-55
2021/06/30 05:29:52;;;;;;;;;;;;;;;21.59;59.60;101439.81;2195551;39;115866;-55
2021/06/30 05:31:24;;;;;;;;;;;;;;;21.62;59.61;101432.75;2197901;39;115837;-55
2021/06/30 05:32:56;;;;;;;;;;;;;;;21.64;59.50;101441.72;2198341;39;116154;-55
2021/06/30 05:34:28;;;;;;;;;;;;;;;21.65;59.71;101447.03;2195727;39;113878;-57
2021/06/30 05:36:00;;;;;;;;;;;;;;;21.69;59.92;101445.28;2191210;39;113886;-56
2021/06/30 05:37:32;;;;;;;;;;;;;;;21.71;59.85;101443.00;2189173;39;114113;-55
2021/06/30 05:39:04;;;;;;;;;;;;;;;21.76;60.19;101446.91;2188751;39;113820;-55
2021/06/30 05:40:36;;;;;;;;;;;;;;;21.79;60.19;101447.13;2189273;39;113602;-55
2021/06/30 05:42:08;;;;;;;;;;;;;;;21.81;60.16;101444.81;2196225;39;113908;-55
2021/06/30 05:43:39;;;;;;;;;;;;;;;21.85;60.27;101443.06;2198370;39;113700;-55
2021/06/30 05:46:46;;;;;;;;;;;;;;;21.92;60.38;101454.78;2198086;39;113721;-55
2021/06/30 05:48:18;;;;;;;;;;;;;;;21.95;60.23;101445.75;2197071;39;113718;-55
2021/06/30 05:49:50;;;;;;;;;;;;;;;21.99;60.09;101451.59;2198761;39;113635;-55
2021/06/30 05:51:22;;;;;;;;;;;;;;;22.02;60.26;101449.03;2190972;39;113771;-56
2021/06/30 05:52:54;;;;;;;;;;;;;;;22.06;60.11;101449.25;2184177;39;114261;-55
2021/06/30 05:54:26;;;;;;;;;;;;;;;22.09;60.00;101452.28;2195822;39;113639;-55
2021/06/30 05:55:58;;;;;;;;;;;;;;;22.13;59.75;101450.53;2188719;39;115189;-55
2021/06/30 05:57:29;;;;;;;;;;;;;;;22.16;59.92;101446.28;2194988;39;114080;-55
2021/06/30 05:59:02;;;;;;;;;;;;;;;22.20;59.78;101447.31;2197843;39;114270;-55
2021/06/30 06:00:34;;;;;;;;;;;;;;;22.24;59.44;101447.53;2190768;39;115178;-55
2021/06/30 06:02:07;;;;;;;;;;;;;;;22.28;59.70;101455.06;2195704;39;114614;-56
2021/06/30 06:03:38;;;;;;;;;;;;;;;22.30;59.36;101449.97;2197222;39;115245;-55
2021/06/30 06:05:10;;;;;;;;;;;;;;;22.34;59.33;101447.38;2198547;39;114691;-55
2021/06/30 06:06:42;;;;;;;;;;;;;;;22.37;59.35;101447.56;2198091;39;115556;-60
2021/06/30 06:08:14;;;;;;;;;;;;;;;22.40;58.85;101452.56;2194137;39;114913;-55
2021/06/30 06:09:46;;;;;;;;;;;;;;;22.44;58.97;101452.81;2188994;39;114819;-55
2021/06/30 06:11:18;;;;;;;;;;;;;;;22.47;58.63;101447.41;2196183;39;114906;-55
2021/06/30 06:12:50;;;;;;;;;;;;;;;22.49;58.69;101445.09;2201482;39;115304;-55
2021/06/30 06:14:22;;;;;;;;;;;;;;;22.52;58.70;101449.28;2202018;39;114585;-55
2021/06/30 06:15:54;;;;;;;;;;;;;;;22.53;58.61;101451.78;2201204;39;114869;-55
2021/06/30 06:17:26;;;;;;;;;;;;;;;22.56;58.29;101447.53;2197198;39;115445;-55
2021/06/30 06:18:58;;;;;;;;;;;;;;;22.59;58.49;101444.06;2185500;39;115600;-55
2021/06/30 06:20:30;;;;;;;;;;;;;;;22.61;58.22;101444.59;2194200;39;115914;-54
2021/06/30 06:22:04;;;;;;;;;;;;;;;22.63;58.16;101448.78;2190904;39;114800;-55
2021/06/30 06:23:36;;;;;;;;;;;;;;;22.66;58.00;101452.13;2189016;39;116078;-55
2021/06/30 06:25:09;;;;;;;;;;;;;;;22.69;57.93;101451.50;2184108;39;115897;-55
2021/06/30 06:26:43;;;;;;;;;;;;;;;22.70;57.85;101450.38;2187204;39;115554;-55
2021/06/30 06:28:16;;;;;;;;;;;;;;;22.72;57.73;101459.34;2196626;39;115897;-55
2021/06/30 06:29:50;;;;;;;;;;;;;;;22.74;57.87;101451.44;2198467;39;116512;-55
2021/06/30 06:31:22;;;;;;;;;;;;;;;22.75;57.64;101456.78;2189775;39;115657;-55
2021/06/30 06:32:53;;;;;;;;;;;;;;;22.77;57.62;101450.81;2194805;39;116062;-55
2021/06/30 06:34:25;;;;;;;;;;;;;;;22.78;57.46;101452.47;2197113;39;116166;-56
2021/06/30 06:35:58;;;;;;;;;;;;;;;22.79;57.52;101446.53;2196799;39;115855;-55
2021/06/30 06:37:30;;;;;;;;;;;;;;;22.81;57.63;101447.03;2198748;39;115596;-55
2021/06/30 06:39:04;;;;;;;;;;;;;;;22.84;57.76;101445.59;2189632;39;114775;-55
2021/06/30 06:40:37;;;;;;;;;;;;;;;22.84;57.60;101446.44;2194687;39;113755;-55
2021/06/30 06:42:11;;;;;;;;;;;;;;;22.85;57.70;101439.63;2189617;39;113796;-55
2021/06/30 06:43:43;;;;;;;;;;;;;;;22.87;57.82;101442.16;2195648;39;113855;-55
2021/06/30 06:45:15;;;;;;;;;;;;;;;22.89;57.57;101442.69;2189235;39;113651;-56
2021/06/30 06:46:47;;;;;;;;;;;;;;;22.90;57.47;101453.63;2193872;39;113960;-55
2021/06/30 06:48:19;;;;;;;;;;;;;;;22.96;56.91;101455.22;2196170;39;114093;-55
2021/06/30 06:49:52;;;;;;;;;;;;;;;22.95;56.48;101456.34;2197405;39;113683;-55
2021/06/30 06:51:25;;;;;;;;;;;;;;;22.94;56.43;101459.50;2198376;39;113750;-55
2021/06/30 06:52:57;;;;;;;;;;;;;;;22.94;56.35;101459.50;2198583;39;113664;-55
2021/06/30 06:54:29;;;;;;;;;;;;;;;22.93;56.17;101461.47;2191709;39;113683;-55
2021/06/30 06:56:02;;;;;;;;;;;;;;;22.93;56.05;101457.81;2194777;39;113816;-55
2021/06/30 06:57:45;;;;;;;;;;;;;;;22.93;55.93;101461.47;2189660;39;113996;-55
2021/06/30 06:59:21;;;;;;;;;;;;;;;22.94;55.67;101456.69;2196297;39;114087;-55
2021/06/30 07:00:53;;;;;;;;;;;;;;;22.93;55.32;101464.31;2200086;39;113976;-55
2021/06/30 07:02:25;;;;;;;;;;;;;;;22.93;55.09;101467.13;2196179;39;114853;-55
2021/06/30 07:03:57;;;;;;;;;;;;;;;22.93;54.82;101469.09;2196210;39;114724;-54
2021/06/30 07:05:29;;;;;;;;;;;;;;;22.92;54.68;101464.59;2196832;39;115125;-55
2021/06/30 07:07:01;;;;;;;;;;;;;;;22.90;54.96;101467.72;2198923;39;114929;-55
2021/06/30 07:08:34;;;;;;;;;;;;;;;22.89;54.53;101457.63;2196050;39;115515;-55
2021/06/30 07:10:06;;;;;;;;;;;;;;;22.90;54.31;101469.69;2196499;39;114884;-55
2021/06/30 07:11:38;;;;;;;;;;;;;;;22.85;54.34;101467.81;2197999;39;115316;-58
2021/06/30 07:13:10;;;;;;;;;;;;;;;22.83;54.11;101472.94;2199323;39;114641;-55
2021/06/30 07:14:42;;;;;;;;;;;;;;;22.81;54.08;101480.03;2192495;39;118365;-56
2021/06/30 07:16:14;;;;;;;;;;;;;;;22.82;53.31;101482.53;2191736;39;116528;-55
2021/06/30 07:17:46;;;;;;;;;;;;;;;22.75;52.18;101484.09;2186153;39;115014;-55
2021/06/30 07:19:18;;;;;;;;;;;;;;;22.81;53.28;101480.84;2186287;39;114928;-55
2021/06/30 07:20:51;;;;;;;;;;;;;;;22.75;51.44;101484.09;2191578;39;114862;-56
2021/06/30 07:22:24;;;;;;;;;;;;;;;22.67;51.00;101476.34;2200282;39;114042;-55
2021/06/30 07:24:00;;;;;;;;;;;;;;;22.65;51.61;101484.25;2200377;39;115976;-55
2021/06/30 07:25:32;;;;;;;;;;;;;;;22.63;50.96;101479.75;2199958;39;115992;-55
2021/06/30 07:27:04;;;;;;;;;;;;;;;22.60;50.47;101474.75;2201194;39;116747;-55
2021/06/30 07:28:36;;;;;;;;;;;;;;;22.60;50.80;101480.38;2186044;39;115683;-55
2021/06/30 07:30:08;;;;;;;;;;;;;;;22.58;50.56;101471.41;2191906;39;115644;-55
2021/06/30 07:31:41;;;;;;;;;;;;;;;22.59;50.86;101484.34;2202357;39;115860;-55
2021/06/30 07:33:14;;;;;;;;;;;;;;;22.58;51.19;101479.84;2192071;39;115816;-55
2021/06/30 07:34:46;;;;;;;;;;;;;;;22.57;51.39;101483.00;2196025;39;115594;-55
2021/06/30 07:36:18;;;;;;;;;;;;;;;22.56;51.41;101478.50;2195058;39;115356;-55
2021/06/30 07:37:50;;;;;;;;;;;;;;;22.59;51.35;101477.88;2198369;39;116002;-55
2021/06/30 07:39:24;;;;;;;;;;;;;;;22.56;51.26;101478.50;2198567;39;115684;-55
2021/06/30 07:40:58;;;;;;;;;;;;;;;22.55;51.23;101480.47;2198441;39;116233;-55
2021/06/30 07:42:30;;;;;;;;;;;;;;;22.55;51.04;101477.66;2188890;39;115665;-56
2021/06/30 07:44:03;;;;;;;;;;;;;;;22.54;50.89;101478.78;2198263;39;115808;-55
2021/06/30 07:45:35;;;;;;;;;;;;;;;22.56;50.93;101481.31;2198582;39;114048;-55
2021/06/30 07:47:10;;;;;;;;;;;;;;;22.53;51.09;101479.13;2192298;39;114416;-55
2021/06/30 07:48:43;;;;;;;;;;;;;;;22.52;50.88;101469.00;2196634;39;113634;-55
2021/06/30 07:50:17;;;;;;;;;;;;;;;22.53;50.58;101481.94;2191969;39;113744;-55